sensor_id;sensor_type;location;lat;lon;timestamp;P1;durP1;ratioP1;P2;durP2;ratioP2
42742;SDS011;28397;44.552;-0.848;2022-09-09T00:01:54;12.70;;;5.55;;
42742;SDS011;28397;44.552;-0.848;2022-09-09T00:04:33;8.18;;;4.93;;
42742;SDS011;28397;44.552;-0.848;2022-09-09T00:14:56;8.00;;;4.55;;
42742;SDS011;28397;44.552;-0.848;2022-09-09T00:23:11;9.68;;;4.38;;
42742;SDS011;28397;44.552;-0.848;2022-09-09T00:31:23;15.00;;;5.40;;
42742;SDS011;28397;44.552;-0.848;2022-09-09T00:33:52;6.97;;;4.68;;
42742;SDS011;28397;44.552;-0.848;2022-09-09T00:36:22;11.20;;;4.80;;
42742;SDS011;28397;44.552;-0.848;2022-09-09T00:38:52;8.30;;;4.40;;
42742;SDS011;28397;44.552;-0.848;2022-09-09T00:43:55;11.88;;;6.18;;
42742;SDS011;28397;44.552;-0.848;2022-09-09T00:49:24;12.13;;;5.28;;
42742;SDS011;28397;44.552;-0.848;2022-09-09T00:57:40;10.55;;;5.10;;
42742;SDS011;28397;44.552;-0.848;2022-09-09T01:00:23;11.93;;;6.00;;
42742;SDS011;28397;44.552;-0.848;2022-09-09T01:11:33;12.93;;;5.82;;
42742;SDS011;28397;44.552;-0.848;2022-09-09T01:17:05;10.00;;;5.38;;
42742;SDS011;28397;44.552;-0.848;2022-09-09T01:25:18;13.55;;;6.15;;
42742;SDS011;28397;44.552;-0.848;2022-09-09T01:27:51;8.15;;;5.43;;
42742;SDS011;28397;44.552;-0.848;2022-09-09T01:30:19;8.32;;;5.10;;
42742;SDS011;28397;44.552;-0.848;2022-09-09T01:32:50;12.07;;;5.57;;
42742;SDS011;28397;44.552;-0.848;2022-09-09T01:35:31;10.43;;;5.30;;
42742;SDS011;28397;44.552;-0.848;2022-09-09T01:38:13;10.82;;;4.60;;
42742;SDS011;28397;44.552;-0.848;2022-09-09T01:40:40;9.20;;;5.22;;
42742;SDS011;28397;44.552;-0.848;2022-09-09T01:43:06;10.15;;;5.57;;
42742;SDS011;28397;44.552;-0.848;2022-09-09T01:45:32;12.45;;;6.28;;
42742;SDS011;28397;44.552;-0.848;2022-09-09T01:47:59;13.32;;;5.68;;
42742;SDS011;28397;44.552;-0.848;2022-09-09T01:50:25;8.98;;;5.10;;
42742;SDS011;28397;44.552;-0.848;2022-09-09T01:52:55;11.07;;;6.10;;
42742;SDS011;28397;44.552;-0.848;2022-09-09T02:01:21;13.07;;;7.40;;
42742;SDS011;28397;44.552;-0.848;2022-09-09T02:03:51;10.65;;;6.25;;
42742;SDS011;28397;44.552;-0.848;2022-09-09T02:06:25;11.25;;;5.72;;
42742;SDS011;28397;44.552;-0.848;2022-09-09T02:09:01;10.23;;;6.32;;
42742;SDS011;28397;44.552;-0.848;2022-09-09T02:11:30;11.45;;;6.15;;
42742;SDS011;28397;44.552;-0.848;2022-09-09T02:13:59;10.35;;;5.82;;
42742;SDS011;28397;44.552;-0.848;2022-09-09T02:16:29;9.05;;;5.88;;
42742;SDS011;28397;44.552;-0.848;2022-09-09T02:19:08;12.63;;;6.50;;
42742;SDS011;28397;44.552;-0.848;2022-09-09T02:21:39;12.57;;;6.18;;
42742;SDS011;28397;44.552;-0.848;2022-09-09T02:24:08;10.18;;;5.63;;
42742;SDS011;28397;44.552;-0.848;2022-09-09T02:26:40;10.38;;;6.15;;
42742;SDS011;28397;44.552;-0.848;2022-09-09T02:29:11;9.02;;;5.22;;
42742;SDS011;28397;44.552;-0.848;2022-09-09T02:31:41;8.75;;;5.97;;
42742;SDS011;28397;44.552;-0.848;2022-09-09T02:34:11;9.27;;;5.70;;
42742;SDS011;28397;44.552;-0.848;2022-09-09T02:36:40;12.77;;;6.38;;
42742;SDS011;28397;44.552;-0.848;2022-09-09T02:39:08;12.45;;;6.60;;
42742;SDS011;28397;44.552;-0.848;2022-09-09T02:41:36;9.52;;;6.20;;
42742;SDS011;28397;44.552;-0.848;2022-09-09T02:44:11;13.95;;;7.05;;
42742;SDS011;28397;44.552;-0.848;2022-09-09T02:52:07;11.43;;;5.05;;
42742;SDS011;28397;44.552;-0.848;2022-09-09T02:54:39;11.00;;;5.70;;
42742;SDS011;28397;44.552;-0.848;2022-09-09T02:57:10;10.27;;;5.43;;
42742;SDS011;28397;44.552;-0.848;2022-09-09T02:59:42;9.15;;;5.50;;
42742;SDS011;28397;44.552;-0.848;2022-09-09T03:02:09;11.35;;;5.18;;
42742;SDS011;28397;44.552;-0.848;2022-09-09T03:04:36;9.85;;;5.82;;
42742;SDS011;28397;44.552;-0.848;2022-09-09T03:07:02;8.73;;;4.45;;
42742;SDS011;28397;44.552;-0.848;2022-09-09T03:09:29;10.05;;;4.43;;
42742;SDS011;28397;44.552;-0.848;2022-09-09T03:11:55;9.25;;;5.10;;
42742;SDS011;28397;44.552;-0.848;2022-09-09T03:14:21;9.90;;;4.47;;
42742;SDS011;28397;44.552;-0.848;2022-09-09T03:16:50;14.00;;;5.45;;
42742;SDS011;28397;44.552;-0.848;2022-09-09T03:19:16;8.02;;;4.55;;
42742;SDS011;28397;44.552;-0.848;2022-09-09T03:21:43;9.15;;;4.60;;
42742;SDS011;28397;44.552;-0.848;2022-09-09T03:24:10;10.45;;;4.40;;
42742;SDS011;28397;44.552;-0.848;2022-09-09T03:26:36;9.88;;;4.43;;
42742;SDS011;28397;44.552;-0.848;2022-09-09T03:29:03;9.98;;;4.13;;
42742;SDS011;28397;44.552;-0.848;2022-09-09T03:31:31;10.52;;;4.85;;
42742;SDS011;28397;44.552;-0.848;2022-09-09T03:34:01;10.13;;;4.40;;
42742;SDS011;28397;44.552;-0.848;2022-09-09T03:36:27;9.55;;;4.10;;
42742;SDS011;28397;44.552;-0.848;2022-09-09T03:38:54;8.60;;;4.03;;
42742;SDS011;28397;44.552;-0.848;2022-09-09T03:41:23;9.85;;;4.55;;
42742;SDS011;28397;44.552;-0.848;2022-09-09T03:43:50;9.10;;;4.50;;
42742;SDS011;28397;44.552;-0.848;2022-09-09T03:46:17;12.02;;;4.68;;
42742;SDS011;28397;44.552;-0.848;2022-09-09T03:48:46;9.98;;;5.18;;
42742;SDS011;28397;44.552;-0.848;2022-09-09T03:51:12;9.75;;;4.57;;
42742;SDS011;28397;44.552;-0.848;2022-09-09T03:53:38;11.40;;;4.80;;
42742;SDS011;28397;44.552;-0.848;2022-09-09T03:56:04;8.15;;;4.40;;
42742;SDS011;28397;44.552;-0.848;2022-09-09T03:58:32;12.32;;;4.78;;
42742;SDS011;28397;44.552;-0.848;2022-09-09T04:01:06;15.13;;;4.85;;
42742;SDS011;28397;44.552;-0.848;2022-09-09T04:03:38;11.10;;;4.75;;
42742;SDS011;28397;44.552;-0.848;2022-09-09T04:06:05;11.43;;;4.47;;
42742;SDS011;28397;44.552;-0.848;2022-09-09T04:08:32;14.68;;;4.80;;
42742;SDS011;28397;44.552;-0.848;2022-09-09T04:11:00;6.57;;;4.20;;
42742;SDS011;28397;44.552;-0.848;2022-09-09T04:13:31;8.65;;;4.20;;
42742;SDS011;28397;44.552;-0.848;2022-09-09T04:15:58;12.55;;;4.95;;
42742;SDS011;28397;44.552;-0.848;2022-09-09T04:18:24;9.68;;;4.22;;
42742;SDS011;28397;44.552;-0.848;2022-09-09T04:20:51;8.70;;;4.40;;
42742;SDS011;28397;44.552;-0.848;2022-09-09T04:23:18;9.73;;;4.70;;
42742;SDS011;28397;44.552;-0.848;2022-09-09T04:25:48;9.80;;;4.45;;
42742;SDS011;28397;44.552;-0.848;2022-09-09T04:28:16;9.98;;;4.40;;
42742;SDS011;28397;44.552;-0.848;2022-09-09T04:30:43;8.98;;;4.28;;
42742;SDS011;28397;44.552;-0.848;2022-09-09T04:33:10;9.57;;;4.38;;
42742;SDS011;28397;44.552;-0.848;2022-09-09T04:35:36;10.32;;;4.80;;
42742;SDS011;28397;44.552;-0.848;2022-09-09T04:38:03;9.40;;;4.53;;
42742;SDS011;28397;44.552;-0.848;2022-09-09T04:40:30;8.23;;;4.00;;
42742;SDS011;28397;44.552;-0.848;2022-09-09T04:43:02;6.72;;;4.13;;
42742;SDS011;28397;44.552;-0.848;2022-09-09T04:45:31;9.23;;;4.03;;
42742;SDS011;28397;44.552;-0.848;2022-09-09T04:47:57;9.48;;;4.18;;
42742;SDS011;28397;44.552;-0.848;2022-09-09T04:50:23;10.65;;;3.95;;
42742;SDS011;28397;44.552;-0.848;2022-09-09T04:52:48;8.82;;;3.50;;
42742;SDS011;28397;44.552;-0.848;2022-09-09T04:55:14;9.48;;;3.97;;
42742;SDS011;28397;44.552;-0.848;2022-09-09T04:57:40;8.65;;;3.85;;
42742;SDS011;28397;44.552;-0.848;2022-09-09T05:00:06;12.55;;;4.20;;
42742;SDS011;28397;44.552;-0.848;2022-09-09T05:02:32;9.73;;;3.53;;
42742;SDS011;28397;44.552;-0.848;2022-09-09T05:05:01;9.88;;;3.40;;
42742;SDS011;28397;44.552;-0.848;2022-09-09T05:07:27;8.15;;;3.10;;
42742;SDS011;28397;44.552;-0.848;2022-09-09T05:09:54;13.65;;;3.30;;
42742;SDS011;28397;44.552;-0.848;2022-09-09T05:12:19;9.80;;;3.05;;
42742;SDS011;28397;44.552;-0.848;2022-09-09T05:14:45;11.95;;;3.72;;
42742;SDS011;28397;44.552;-0.848;2022-09-09T05:17:11;10.63;;;3.60;;
42742;SDS011;28397;44.552;-0.848;2022-09-09T05:19:38;11.45;;;3.63;;
42742;SDS011;28397;44.552;-0.848;2022-09-09T05:22:03;8.30;;;3.67;;
42742;SDS011;28397;44.552;-0.848;2022-09-09T05:24:30;11.23;;;3.72;;
42742;SDS011;28397;44.552;-0.848;2022-09-09T05:26:58;9.40;;;3.60;;
42742;SDS011;28397;44.552;-0.848;2022-09-09T05:29:26;10.15;;;3.45;;
42742;SDS011;28397;44.552;-0.848;2022-09-09T05:31:52;9.65;;;3.22;;
42742;SDS011;28397;44.552;-0.848;2022-09-09T05:34:18;11.45;;;3.60;;
42742;SDS011;28397;44.552;-0.848;2022-09-09T05:36:44;9.63;;;3.20;;
42742;SDS011;28397;44.552;-0.848;2022-09-09T05:39:10;8.52;;;3.17;;
42742;SDS011;28397;44.552;-0.848;2022-09-09T05:41:37;7.80;;;3.13;;
42742;SDS011;28397;44.552;-0.848;2022-09-09T05:44:02;8.70;;;3.63;;
42742;SDS011;28397;44.552;-0.848;2022-09-09T05:46:28;11.20;;;3.55;;
42742;SDS011;28397;44.552;-0.848;2022-09-09T05:48:55;6.97;;;3.20;;
42742;SDS011;28397;44.552;-0.848;2022-09-09T05:51:22;10.85;;;3.28;;
42742;SDS011;28397;44.552;-0.848;2022-09-09T05:53:50;12.60;;;3.10;;
42742;SDS011;28397;44.552;-0.848;2022-09-09T05:56:20;12.65;;;3.50;;
42742;SDS011;28397;44.552;-0.848;2022-09-09T05:58:48;9.43;;;3.38;;
42742;SDS011;28397;44.552;-0.848;2022-09-09T06:01:19;7.85;;;3.00;;
42742;SDS011;28397;44.552;-0.848;2022-09-09T06:03:50;14.00;;;3.92;;
42742;SDS011;28397;44.552;-0.848;2022-09-09T06:06:17;9.70;;;3.50;;
42742;SDS011;28397;44.552;-0.848;2022-09-09T06:08:45;8.23;;;3.33;;
42742;SDS011;28397;44.552;-0.848;2022-09-09T06:11:21;9.88;;;3.50;;
42742;SDS011;28397;44.552;-0.848;2022-09-09T06:13:49;9.68;;;2.90;;
42742;SDS011;28397;44.552;-0.848;2022-09-09T06:16:18;6.28;;;2.40;;
42742;SDS011;28397;44.552;-0.848;2022-09-09T06:18:48;9.98;;;2.80;;
42742;SDS011;28397;44.552;-0.848;2022-09-09T06:21:17;6.90;;;2.00;;
42742;SDS011;28397;44.552;-0.848;2022-09-09T06:23:45;10.48;;;2.20;;
42742;SDS011;28397;44.552;-0.848;2022-09-09T06:26:14;8.98;;;2.30;;
42742;SDS011;28397;44.552;-0.848;2022-09-09T06:28:40;10.43;;;2.83;;
42742;SDS011;28397;44.552;-0.848;2022-09-09T06:31:09;9.63;;;2.60;;
42742;SDS011;28397;44.552;-0.848;2022-09-09T06:33:39;8.85;;;2.20;;
42742;SDS011;28397;44.552;-0.848;2022-09-09T06:36:07;6.78;;;2.20;;
42742;SDS011;28397;44.552;-0.848;2022-09-09T06:38:37;7.18;;;2.30;;
42742;SDS011;28397;44.552;-0.848;2022-09-09T06:41:03;7.40;;;2.63;;
42742;SDS011;28397;44.552;-0.848;2022-09-09T06:43:30;7.25;;;2.40;;
42742;SDS011;28397;44.552;-0.848;2022-09-09T06:45:57;6.82;;;2.25;;
42742;SDS011;28397;44.552;-0.848;2022-09-09T06:48:23;7.75;;;2.15;;
42742;SDS011;28397;44.552;-0.848;2022-09-09T06:50:51;6.82;;;2.30;;
42742;SDS011;28397;44.552;-0.848;2022-09-09T06:53:27;6.05;;;1.70;;
42742;SDS011;28397;44.552;-0.848;2022-09-09T06:55:53;6.38;;;2.00;;
42742;SDS011;28397;44.552;-0.848;2022-09-09T06:58:19;6.70;;;2.25;;
42742;SDS011;28397;44.552;-0.848;2022-09-09T07:00:47;5.07;;;1.80;;
42742;SDS011;28397;44.552;-0.848;2022-09-09T07:03:13;7.60;;;2.20;;
42742;SDS011;28397;44.552;-0.848;2022-09-09T07:05:38;5.55;;;1.67;;
42742;SDS011;28397;44.552;-0.848;2022-09-09T07:08:04;7.88;;;1.88;;
42742;SDS011;28397;44.552;-0.848;2022-09-09T07:10:30;9.40;;;2.33;;
42742;SDS011;28397;44.552;-0.848;2022-09-09T07:12:56;5.43;;;1.90;;
42742;SDS011;28397;44.552;-0.848;2022-09-09T07:15:22;6.10;;;1.67;;
42742;SDS011;28397;44.552;-0.848;2022-09-09T07:17:48;5.95;;;1.95;;
42742;SDS011;28397;44.552;-0.848;2022-09-09T07:20:14;5.40;;;1.67;;
42742;SDS011;28397;44.552;-0.848;2022-09-09T07:22:40;6.13;;;1.90;;
42742;SDS011;28397;44.552;-0.848;2022-09-09T07:25:06;4.63;;;1.67;;
42742;SDS011;28397;44.552;-0.848;2022-09-09T07:27:32;8.15;;;1.75;;
42742;SDS011;28397;44.552;-0.848;2022-09-09T07:29:58;9.73;;;3.13;;
42742;SDS011;28397;44.552;-0.848;2022-09-09T07:32:24;6.55;;;2.03;;
42742;SDS011;28397;44.552;-0.848;2022-09-09T07:34:50;7.18;;;1.95;;
42742;SDS011;28397;44.552;-0.848;2022-09-09T07:37:16;9.90;;;3.58;;
42742;SDS011;28397;44.552;-0.848;2022-09-09T07:39:43;5.57;;;1.90;;
42742;SDS011;28397;44.552;-0.848;2022-09-09T07:42:09;8.00;;;1.95;;
42742;SDS011;28397;44.552;-0.848;2022-09-09T07:44:38;6.45;;;2.08;;
42742;SDS011;28397;44.552;-0.848;2022-09-09T07:47:05;5.88;;;1.77;;
42742;SDS011;28397;44.552;-0.848;2022-09-09T07:49:31;6.75;;;1.70;;
42742;SDS011;28397;44.552;-0.848;2022-09-09T07:51:57;5.68;;;1.77;;
42742;SDS011;28397;44.552;-0.848;2022-09-09T07:54:23;8.90;;;2.20;;
42742;SDS011;28397;44.552;-0.848;2022-09-09T07:56:49;5.80;;;1.88;;
42742;SDS011;28397;44.552;-0.848;2022-09-09T07:59:16;5.80;;;1.88;;
42742;SDS011;28397;44.552;-0.848;2022-09-09T08:01:44;4.78;;;1.65;;
42742;SDS011;28397;44.552;-0.848;2022-09-09T08:04:21;8.30;;;2.20;;
42742;SDS011;28397;44.552;-0.848;2022-09-09T08:06:53;5.95;;;1.70;;
42742;SDS011;28397;44.552;-0.848;2022-09-09T08:09:21;4.68;;;1.90;;
42742;SDS011;28397;44.552;-0.848;2022-09-09T08:11:50;5.68;;;2.13;;
42742;SDS011;28397;44.552;-0.848;2022-09-09T08:14:16;6.82;;;1.80;;
42742;SDS011;28397;44.552;-0.848;2022-09-09T08:16:44;6.68;;;2.03;;
42742;SDS011;28397;44.552;-0.848;2022-09-09T08:19:11;6.78;;;1.83;;
42742;SDS011;28397;44.552;-0.848;2022-09-09T08:21:38;4.65;;;1.60;;
42742;SDS011;28397;44.552;-0.848;2022-09-09T08:24:05;7.60;;;1.92;;
42742;SDS011;28397;44.552;-0.848;2022-09-09T08:26:33;5.35;;;1.67;;
42742;SDS011;28397;44.552;-0.848;2022-09-09T08:29:00;5.28;;;1.95;;
42742;SDS011;28397;44.552;-0.848;2022-09-09T08:31:31;5.63;;;1.80;;
42742;SDS011;28397;44.552;-0.848;2022-09-09T08:33:59;6.82;;;2.10;;
42742;SDS011;28397;44.552;-0.848;2022-09-09T08:36:28;7.22;;;1.90;;
42742;SDS011;28397;44.552;-0.848;2022-09-09T08:38:56;5.20;;;1.70;;
42742;SDS011;28397;44.552;-0.848;2022-09-09T08:49:35;4.80;;;1.73;;
42742;SDS011;28397;44.552;-0.848;2022-09-09T08:52:13;6.72;;;1.80;;
42742;SDS011;28397;44.552;-0.848;2022-09-09T08:54:45;5.13;;;1.70;;
42742;SDS011;28397;44.552;-0.848;2022-09-09T08:57:14;11.25;;;1.98;;
42742;SDS011;28397;44.552;-0.848;2022-09-09T08:59:46;5.65;;;1.63;;
42742;SDS011;28397;44.552;-0.848;2022-09-09T09:02:17;8.85;;;1.80;;
42742;SDS011;28397;44.552;-0.848;2022-09-09T09:13:07;15.85;;;3.67;;
42742;SDS011;28397;44.552;-0.848;2022-09-09T09:15:40;4.65;;;1.50;;
42742;SDS011;28397;44.552;-0.848;2022-09-09T09:18:10;8.88;;;2.92;;
42742;SDS011;28397;44.552;-0.848;2022-09-09T09:20:55;7.45;;;1.98;;
42742;SDS011;28397;44.552;-0.848;2022-09-09T09:23:32;6.43;;;1.80;;
42742;SDS011;28397;44.552;-0.848;2022-09-09T09:26:05;11.70;;;1.95;;
42742;SDS011;28397;44.552;-0.848;2022-09-09T09:28:34;9.25;;;1.90;;
42742;SDS011;28397;44.552;-0.848;2022-09-09T09:36:11;6.93;;;2.05;;
42742;SDS011;28397;44.552;-0.848;2022-09-09T09:38:40;6.82;;;1.92;;
42742;SDS011;28397;44.552;-0.848;2022-09-09T09:41:31;7.57;;;2.00;;
42742;SDS011;28397;44.552;-0.848;2022-09-09T09:44:00;6.50;;;1.63;;
42742;SDS011;28397;44.552;-0.848;2022-09-09T09:46:27;4.90;;;1.60;;
42742;SDS011;28397;44.552;-0.848;2022-09-09T09:49:00;7.65;;;2.00;;
42742;SDS011;28397;44.552;-0.848;2022-09-09T09:51:28;7.88;;;2.00;;
42742;SDS011;28397;44.552;-0.848;2022-09-09T09:56:42;7.75;;;1.50;;
42742;SDS011;28397;44.552;-0.848;2022-09-09T09:59:19;7.22;;;1.70;;
42742;SDS011;28397;44.552;-0.848;2022-09-09T10:01:54;6.47;;;1.67;;
42742;SDS011;28397;44.552;-0.848;2022-09-09T10:04:22;5.95;;;1.75;;
42742;SDS011;28397;44.552;-0.848;2022-09-09T10:06:49;5.85;;;1.75;;
42742;SDS011;28397;44.552;-0.848;2022-09-09T10:09:25;4.90;;;1.50;;
42742;SDS011;28397;44.552;-0.848;2022-09-09T10:22:45;7.70;;;1.90;;
42742;SDS011;28397;44.552;-0.848;2022-09-09T10:25:28;9.10;;;2.03;;
42742;SDS011;28397;44.552;-0.848;2022-09-09T10:33:33;6.75;;;1.80;;
42742;SDS011;28397;44.552;-0.848;2022-09-09T10:38:46;4.70;;;1.60;;
42742;SDS011;28397;44.552;-0.848;2022-09-09T10:47:03;8.13;;;1.95;;
42742;SDS011;28397;44.552;-0.848;2022-09-09T10:55:35;5.07;;;1.85;;
42742;SDS011;28397;44.552;-0.848;2022-09-09T10:58:09;4.67;;;1.60;;
42742;SDS011;28397;44.552;-0.848;2022-09-09T11:00:59;4.72;;;1.50;;
42742;SDS011;28397;44.552;-0.848;2022-09-09T11:03:32;5.18;;;1.40;;
42742;SDS011;28397;44.552;-0.848;2022-09-09T11:06:04;7.00;;;1.70;;
42742;SDS011;28397;44.552;-0.848;2022-09-09T11:08:32;4.82;;;1.60;;
42742;SDS011;28397;44.552;-0.848;2022-09-09T11:11:06;8.13;;;1.75;;
42742;SDS011;28397;44.552;-0.848;2022-09-09T11:13:41;5.40;;;1.65;;
42742;SDS011;28397;44.552;-0.848;2022-09-09T11:18:58;6.13;;;1.38;;
42742;SDS011;28397;44.552;-0.848;2022-09-09T11:21:33;4.63;;;1.70;;
42742;SDS011;28397;44.552;-0.848;2022-09-09T11:24:04;5.30;;;1.40;;
42742;SDS011;28397;44.552;-0.848;2022-09-09T11:26:39;6.65;;;1.90;;
42742;SDS011;28397;44.552;-0.848;2022-09-09T11:29:17;6.35;;;1.50;;
42742;SDS011;28397;44.552;-0.848;2022-09-09T11:32:07;6.10;;;1.58;;
42742;SDS011;28397;44.552;-0.848;2022-09-09T11:42:47;5.63;;;1.50;;
42742;SDS011;28397;44.552;-0.848;2022-09-09T11:48:01;3.88;;;1.10;;
42742;SDS011;28397;44.552;-0.848;2022-09-09T11:50:29;5.50;;;1.70;;
42742;SDS011;28397;44.552;-0.848;2022-09-09T11:55:38;5.80;;;1.25;;
42742;SDS011;28397;44.552;-0.848;2022-09-09T12:03:02;5.90;;;1.20;;
42742;SDS011;28397;44.552;-0.848;2022-09-09T12:05:36;5.30;;;1.30;;
42742;SDS011;28397;44.552;-0.848;2022-09-09T12:08:15;6.13;;;1.55;;
42742;SDS011;28397;44.552;-0.848;2022-09-09T12:10:54;4.25;;;1.40;;
42742;SDS011;28397;44.552;-0.848;2022-09-09T12:13:22;6.43;;;1.50;;
42742;SDS011;28397;44.552;-0.848;2022-09-09T12:15:50;6.28;;;1.25;;
42742;SDS011;28397;44.552;-0.848;2022-09-09T12:18:37;4.93;;;1.50;;
42742;SDS011;28397;44.552;-0.848;2022-09-09T12:21:27;6.97;;;1.42;;
42742;SDS011;28397;44.552;-0.848;2022-09-09T12:24:08;5.13;;;1.52;;
42742;SDS011;28397;44.552;-0.848;2022-09-09T12:32:10;4.60;;;1.30;;
42742;SDS011;28397;44.552;-0.848;2022-09-09T12:34:40;8.48;;;1.52;;
42742;SDS011;28397;44.552;-0.848;2022-09-09T12:40:01;4.75;;;1.67;;
42742;SDS011;28397;44.552;-0.848;2022-09-09T12:42:29;6.78;;;1.70;;
42742;SDS011;28397;44.552;-0.848;2022-09-09T12:45:02;5.78;;;1.50;;
42742;SDS011;28397;44.552;-0.848;2022-09-09T12:47:44;5.15;;;1.40;;
42742;SDS011;28397;44.552;-0.848;2022-09-09T12:50:37;5.93;;;1.70;;
42742;SDS011;28397;44.552;-0.848;2022-09-09T12:53:51;4.47;;;1.50;;
42742;SDS011;28397;44.552;-0.848;2022-09-09T12:56:00;4.80;;;1.45;;
42742;SDS011;28397;44.552;-0.848;2022-09-09T12:58:29;7.13;;;1.48;;
42742;SDS011;28397;44.552;-0.848;2022-09-09T13:01:00;5.07;;;1.40;;
42742;SDS011;28397;44.552;-0.848;2022-09-09T13:03:28;3.20;;;1.20;;
42742;SDS011;28397;44.552;-0.848;2022-09-09T13:05:54;4.13;;;1.40;;
42742;SDS011;28397;44.552;-0.848;2022-09-09T13:08:25;4.43;;;1.60;;
42742;SDS011;28397;44.552;-0.848;2022-09-09T13:11:00;4.95;;;1.50;;
42742;SDS011;28397;44.552;-0.848;2022-09-09T13:13:30;4.13;;;1.40;;
42742;SDS011;28397;44.552;-0.848;2022-09-09T13:16:01;4.50;;;1.42;;
42742;SDS011;28397;44.552;-0.848;2022-09-09T13:18:30;3.13;;;1.10;;
42742;SDS011;28397;44.552;-0.848;2022-09-09T13:20:58;4.93;;;1.33;;
42742;SDS011;28397;44.552;-0.848;2022-09-09T13:23:29;4.45;;;1.25;;
42742;SDS011;28397;44.552;-0.848;2022-09-09T13:25:58;3.72;;;1.13;;
42742;SDS011;28397;44.552;-0.848;2022-09-09T13:28:26;4.22;;;1.50;;
42742;SDS011;28397;44.552;-0.848;2022-09-09T13:30:58;5.10;;;1.30;;
42742;SDS011;28397;44.552;-0.848;2022-09-09T13:33:32;3.22;;;1.02;;
42742;SDS011;28397;44.552;-0.848;2022-09-09T13:38:37;3.47;;;1.25;;
42742;SDS011;28397;44.552;-0.848;2022-09-09T13:41:50;4.40;;;1.23;;
42742;SDS011;28397;44.552;-0.848;2022-09-09T13:44:26;6.22;;;1.50;;
42742;SDS011;28397;44.552;-0.848;2022-09-09T13:47:02;4.68;;;1.45;;
42742;SDS011;28397;44.552;-0.848;2022-09-09T13:49:30;5.15;;;1.70;;
42742;SDS011;28397;44.552;-0.848;2022-09-09T13:52:08;4.63;;;1.23;;
42742;SDS011;28397;44.552;-0.848;2022-09-09T13:54:36;3.78;;;1.30;;
42742;SDS011;28397;44.552;-0.848;2022-09-09T13:57:02;3.78;;;1.30;;
42742;SDS011;28397;44.552;-0.848;2022-09-09T13:59:29;4.32;;;1.50;;
42742;SDS011;28397;44.552;-0.848;2022-09-09T14:01:56;5.63;;;1.27;;
42742;SDS011;28397;44.552;-0.848;2022-09-09T14:04:22;5.97;;;1.58;;
42742;SDS011;28397;44.552;-0.848;2022-09-09T14:06:49;6.32;;;1.48;;
42742;SDS011;28397;44.552;-0.848;2022-09-09T14:09:16;4.93;;;1.58;;
42742;SDS011;28397;44.552;-0.848;2022-09-09T14:11:43;4.07;;;1.42;;
42742;SDS011;28397;44.552;-0.848;2022-09-09T14:14:10;6.68;;;1.63;;
42742;SDS011;28397;44.552;-0.848;2022-09-09T14:16:36;5.95;;;1.35;;
42742;SDS011;28397;44.552;-0.848;2022-09-09T14:19:02;4.43;;;1.50;;
42742;SDS011;28397;44.552;-0.848;2022-09-09T14:21:28;4.35;;;1.25;;
42742;SDS011;28397;44.552;-0.848;2022-09-09T14:23:54;4.65;;;1.33;;
42742;SDS011;28397;44.552;-0.848;2022-09-09T14:26:20;5.68;;;1.40;;
42742;SDS011;28397;44.552;-0.848;2022-09-09T14:28:47;5.95;;;1.60;;
42742;SDS011;28397;44.552;-0.848;2022-09-09T14:31:13;4.82;;;1.27;;
42742;SDS011;28397;44.552;-0.848;2022-09-09T14:33:39;4.72;;;1.30;;
42742;SDS011;28397;44.552;-0.848;2022-09-09T14:36:05;5.97;;;1.38;;
42742;SDS011;28397;44.552;-0.848;2022-09-09T14:38:35;5.35;;;1.48;;
42742;SDS011;28397;44.552;-0.848;2022-09-09T14:41:07;5.35;;;1.70;;
42742;SDS011;28397;44.552;-0.848;2022-09-09T14:43:35;5.53;;;1.50;;
42742;SDS011;28397;44.552;-0.848;2022-09-09T14:46:05;4.20;;;1.40;;
42742;SDS011;28397;44.552;-0.848;2022-09-09T14:48:36;4.80;;;1.48;;
42742;SDS011;28397;44.552;-0.848;2022-09-09T14:51:06;4.68;;;1.20;;
42742;SDS011;28397;44.552;-0.848;2022-09-09T14:53:37;4.68;;;1.40;;
42742;SDS011;28397;44.552;-0.848;2022-09-09T14:56:05;6.30;;;1.52;;
42742;SDS011;28397;44.552;-0.848;2022-09-09T14:58:32;4.95;;;1.30;;
42742;SDS011;28397;44.552;-0.848;2022-09-09T15:01:04;5.20;;;1.48;;
42742;SDS011;28397;44.552;-0.848;2022-09-09T15:05:57;2.95;;;1.23;;
42742;SDS011;28397;44.552;-0.848;2022-09-09T15:08:23;5.20;;;1.30;;
42742;SDS011;28397;44.552;-0.848;2022-09-09T15:10:49;5.25;;;1.60;;
42742;SDS011;28397;44.552;-0.848;2022-09-09T15:13:15;5.53;;;1.30;;
42742;SDS011;28397;44.552;-0.848;2022-09-09T15:15:44;3.72;;;1.38;;
42742;SDS011;28397;44.552;-0.848;2022-09-09T15:18:09;5.80;;;1.45;;
42742;SDS011;28397;44.552;-0.848;2022-09-09T15:20:35;3.60;;;1.10;;
42742;SDS011;28397;44.552;-0.848;2022-09-09T15:23:02;4.13;;;1.40;;
42742;SDS011;28397;44.552;-0.848;2022-09-09T15:25:28;5.40;;;1.40;;
42742;SDS011;28397;44.552;-0.848;2022-09-09T15:27:54;4.22;;;1.17;;
42742;SDS011;28397;44.552;-0.848;2022-09-09T15:30:21;6.80;;;1.30;;
42742;SDS011;28397;44.552;-0.848;2022-09-09T15:32:46;5.50;;;1.20;;
42742;SDS011;28397;44.552;-0.848;2022-09-09T15:35:12;6.20;;;1.48;;
42742;SDS011;28397;44.552;-0.848;2022-09-09T15:37:38;4.63;;;1.30;;
42742;SDS011;28397;44.552;-0.848;2022-09-09T15:40:04;7.32;;;1.77;;
42742;SDS011;28397;44.552;-0.848;2022-09-09T15:42:30;8.02;;;1.60;;
42742;SDS011;28397;44.552;-0.848;2022-09-09T15:44:55;7.65;;;1.70;;
42742;SDS011;28397;44.552;-0.848;2022-09-09T15:47:22;5.63;;;1.48;;
42742;SDS011;28397;44.552;-0.848;2022-09-09T15:49:47;4.32;;;1.38;;
42742;SDS011;28397;44.552;-0.848;2022-09-09T15:52:13;4.47;;;1.25;;
42742;SDS011;28397;44.552;-0.848;2022-09-09T15:54:38;4.47;;;1.23;;
42742;SDS011;28397;44.552;-0.848;2022-09-09T15:57:05;6.40;;;1.63;;
42742;SDS011;28397;44.552;-0.848;2022-09-09T15:59:32;8.02;;;1.70;;
42742;SDS011;28397;44.552;-0.848;2022-09-09T16:01:58;7.60;;;1.70;;
42742;SDS011;28397;44.552;-0.848;2022-09-09T16:04:25;6.47;;;1.92;;
42742;SDS011;28397;44.552;-0.848;2022-09-09T16:06:52;6.45;;;1.95;;
42742;SDS011;28397;44.552;-0.848;2022-09-09T16:09:19;5.50;;;1.23;;
42742;SDS011;28397;44.552;-0.848;2022-09-09T16:11:46;4.57;;;1.35;;
42742;SDS011;28397;44.552;-0.848;2022-09-09T16:14:12;5.35;;;1.50;;
42742;SDS011;28397;44.552;-0.848;2022-09-09T16:16:41;6.97;;;1.60;;
42742;SDS011;28397;44.552;-0.848;2022-09-09T16:19:08;6.82;;;1.88;;
42742;SDS011;28397;44.552;-0.848;2022-09-09T16:21:36;9.25;;;1.60;;
42742;SDS011;28397;44.552;-0.848;2022-09-09T16:24:05;6.90;;;1.50;;
42742;SDS011;28397;44.552;-0.848;2022-09-09T16:26:33;6.53;;;1.55;;
42742;SDS011;28397;44.552;-0.848;2022-09-09T16:29:00;6.32;;;1.65;;
42742;SDS011;28397;44.552;-0.848;2022-09-09T16:31:27;5.05;;;1.48;;
42742;SDS011;28397;44.552;-0.848;2022-09-09T16:33:54;7.57;;;1.45;;
42742;SDS011;28397;44.552;-0.848;2022-09-09T16:36:21;6.95;;;1.80;;
42742;SDS011;28397;44.552;-0.848;2022-09-09T16:38:52;6.80;;;1.88;;
42742;SDS011;28397;44.552;-0.848;2022-09-09T16:41:20;5.82;;;1.70;;
42742;SDS011;28397;44.552;-0.848;2022-09-09T16:43:46;6.82;;;1.50;;
42742;SDS011;28397;44.552;-0.848;2022-09-09T16:46:12;6.30;;;1.50;;
42742;SDS011;28397;44.552;-0.848;2022-09-09T16:48:41;7.45;;;1.40;;
42742;SDS011;28397;44.552;-0.848;2022-09-09T16:51:15;5.93;;;1.63;;
42742;SDS011;28397;44.552;-0.848;2022-09-09T16:53:45;5.75;;;1.52;;
42742;SDS011;28397;44.552;-0.848;2022-09-09T16:56:13;4.72;;;1.40;;
42742;SDS011;28397;44.552;-0.848;2022-09-09T16:58:56;5.50;;;1.55;;
42742;SDS011;28397;44.552;-0.848;2022-09-09T17:01:24;4.60;;;1.30;;
42742;SDS011;28397;44.552;-0.848;2022-09-09T17:03:52;5.82;;;1.50;;
42742;SDS011;28397;44.552;-0.848;2022-09-09T17:06:21;7.00;;;1.60;;
42742;SDS011;28397;44.552;-0.848;2022-09-09T17:08:53;6.25;;;1.70;;
42742;SDS011;28397;44.552;-0.848;2022-09-09T17:11:19;11.38;;;1.92;;
42742;SDS011;28397;44.552;-0.848;2022-09-09T17:13:46;6.72;;;1.83;;